createdAt,value
2018-09-29T00:00:51.348Z,0.83
2018-09-29T00:03:19.857Z,1.00
2018-09-29T00:05:48.391Z,1.50
2018-09-29T00:08:16.884Z,1.30
2018-09-29T00:10:45.363Z,1.20
2018-09-29T00:13:13.861Z,1.10
2018-09-29T00:15:42.367Z,1.23
2018-09-29T00:18:10.844Z,0.90
2018-09-29T00:20:39.331Z,0.87
2018-09-29T00:23:07.810Z,1.03
2018-09-29T00:25:36.303Z,1.10
2018-09-29T00:28:05.160Z,0.70
2018-09-29T00:30:33.656Z,1.10
2018-09-29T00:33:02.133Z,1.40
2018-09-29T00:35:30.639Z,1.03
2018-09-29T00:37:59.125Z,1.10
2018-09-29T00:40:27.593Z,1.00
2018-09-29T00:42:56.075Z,1.00
2018-09-29T00:45:24.591Z,1.13
2018-09-29T00:47:53.076Z,1.00
2018-09-29T00:50:21.543Z,1.13
2018-09-29T00:52:50.037Z,0.80
2018-09-29T00:55:18.503Z,0.83
2018-09-29T00:57:47.023Z,1.07
2018-09-29T01:00:15.584Z,0.73
2018-09-29T01:02:44.090Z,0.63
2018-09-29T01:05:12.569Z,1.20
2018-09-29T01:07:41.089Z,0.80
2018-09-29T01:10:09.590Z,1.10
2018-09-29T01:12:38.065Z,0.97
2018-09-29T01:15:06.577Z,0.83
2018-09-29T01:17:35.088Z,0.93
2018-09-29T01:20:03.578Z,1.30
2018-09-29T01:22:32.086Z,0.90
2018-09-29T01:25:00.692Z,1.13
2018-09-29T01:27:29.180Z,1.43
2018-09-29T01:29:57.658Z,1.30
2018-09-29T01:32:26.138Z,1.33
2018-09-29T01:34:54.650Z,0.83
2018-09-29T01:37:23.162Z,1.30
2018-09-29T01:39:51.638Z,0.70
2018-09-29T01:42:20.116Z,1.30
2018-09-29T01:44:48.582Z,1.23
2018-09-29T01:47:17.061Z,1.20
2018-09-29T01:49:45.595Z,1.27
2018-09-29T01:52:14.092Z,1.37
2018-09-29T01:54:42.558Z,1.30
2018-09-29T01:57:11.053Z,1.40
2018-09-29T01:59:39.534Z,1.33
2018-09-29T02:02:08.009Z,1.23
2018-09-29T02:04:36.509Z,0.87
2018-09-29T02:07:05.025Z,0.87
2018-09-29T02:09:33.499Z,0.90
2018-09-29T02:12:02.011Z,1.20
2018-09-29T02:14:30.498Z,1.27
2018-09-29T02:16:58.991Z,1.13
2018-09-29T02:19:27.480Z,1.20
2018-09-29T02:21:56.007Z,1.40
2018-09-29T02:24:24.499Z,1.40
2018-09-29T02:26:52.981Z,1.00
2018-09-29T02:29:21.459Z,1.37
2018-09-29T02:31:49.934Z,1.37
2018-09-29T02:34:18.495Z,1.67
2018-09-29T02:36:46.955Z,1.23
2018-09-29T02:39:15.451Z,2.07
2018-09-29T02:41:43.947Z,1.00
2018-09-29T02:44:12.421Z,1.30
2018-09-29T02:46:40.928Z,1.53
2018-09-29T02:49:09.397Z,1.50
2018-09-29T02:51:37.889Z,1.27
2018-09-29T02:54:06.463Z,1.73
2018-09-29T02:56:34.972Z,1.93
2018-09-29T02:59:03.455Z,1.47
2018-09-29T03:01:31.960Z,1.60
2018-09-29T03:04:00.444Z,1.50
2018-09-29T03:06:28.924Z,1.10
2018-09-29T03:08:57.404Z,1.50
2018-09-29T03:11:25.933Z,2.17
2018-09-29T03:13:54.413Z,1.70
2018-09-29T03:16:22.889Z,1.60
2018-09-29T03:18:51.366Z,1.40
2018-09-29T03:21:19.875Z,1.40
2018-09-29T03:23:48.354Z,1.97
2018-09-29T03:26:16.823Z,1.47
2018-09-29T03:28:45.347Z,1.60
2018-09-29T03:31:13.807Z,1.50
2018-09-29T03:33:42.279Z,1.63
2018-09-29T03:36:10.755Z,1.57
2018-09-29T03:38:39.231Z,2.33
2018-09-29T03:41:07.782Z,1.83
2018-09-29T03:43:36.311Z,2.00
2018-09-29T03:46:04.823Z,1.90
2018-09-29T03:48:33.295Z,1.77
2018-09-29T03:51:01.784Z,1.47
2018-09-29T03:53:30.294Z,1.90
2018-09-29T03:55:58.849Z,1.73
2018-09-29T03:58:27.328Z,2.17
2018-09-29T04:00:55.819Z,1.73
2018-09-29T04:03:24.408Z,1.73
2018-09-29T04:05:52.932Z,2.30
2018-09-29T04:08:21.412Z,1.50
2018-09-29T04:10:49.872Z,2.20
2018-09-29T04:13:18.400Z,2.03
2018-09-29T04:15:46.888Z,2.10
2018-09-29T04:18:15.374Z,1.80
2018-09-29T04:20:43.845Z,2.07
2018-09-29T04:23:12.363Z,1.50
2018-09-29T04:25:40.869Z,1.77
2018-09-29T04:28:09.349Z,1.50
2018-09-29T04:30:37.815Z,1.27
2018-09-29T04:33:06.332Z,2.40
2018-09-29T04:35:34.875Z,2.07
2018-09-29T04:38:03.397Z,2.10
2018-09-29T04:40:31.911Z,2.33
2018-09-29T04:43:00.438Z,1.67
2018-09-29T04:45:28.920Z,2.07
2018-09-29T04:47:57.410Z,2.37
2018-09-29T04:50:25.906Z,2.03
2018-09-29T04:52:54.465Z,1.43
2018-09-29T04:55:22.992Z,1.80
2018-09-29T04:57:51.504Z,1.63
2018-09-29T05:00:20.063Z,2.20
2018-09-29T05:02:48.556Z,2.20
2018-09-29T05:05:17.127Z,2.20
2018-09-29T05:07:45.678Z,1.80
2018-09-29T05:10:16.213Z,1.73
2018-09-29T05:12:46.986Z,1.40
2018-09-29T05:15:16.044Z,1.73
2018-09-29T05:17:44.619Z,2.27
2018-09-29T05:20:13.283Z,1.83
2018-09-29T05:22:41.869Z,1.27
2018-09-29T05:25:10.539Z,1.83
2018-09-29T05:27:39.029Z,1.30
2018-09-29T05:30:08.931Z,1.67
2018-09-29T05:32:37.681Z,1.10
2018-09-29T05:35:06.785Z,1.60
2018-09-29T05:37:36.976Z,1.23
2018-09-29T05:40:05.510Z,1.20
2018-09-29T05:42:33.980Z,1.67
2018-09-29T05:45:02.486Z,1.47
2018-09-29T05:47:31.260Z,1.27
2018-09-29T05:50:00.344Z,1.00
2018-09-29T05:52:28.841Z,1.10
2018-09-29T05:54:57.354Z,1.10
2018-09-29T05:57:25.826Z,1.10
2018-09-29T05:59:54.322Z,1.47
2018-09-29T06:02:22.848Z,1.30
2018-09-29T06:04:51.382Z,1.37
2018-09-29T06:07:19.947Z,1.07
2018-09-29T06:09:48.351Z,1.53
2018-09-29T06:12:16.871Z,1.37
2018-09-29T06:14:45.364Z,1.57
2018-09-29T06:17:13.886Z,1.53
2018-09-29T06:19:42.382Z,1.50
2018-09-29T06:22:10.861Z,0.93
2018-09-29T06:24:39.331Z,0.90
2018-09-29T06:27:07.845Z,1.70
2018-09-29T06:29:36.337Z,1.93
2018-09-29T06:32:04.959Z,1.20
2018-09-29T06:34:33.618Z,1.37
2018-09-29T06:37:02.173Z,1.07
2018-09-29T06:39:30.679Z,1.47
2018-09-29T06:41:59.161Z,1.00
2018-09-29T06:44:27.688Z,1.63
2018-09-29T06:46:56.200Z,1.30
2018-09-29T06:49:24.702Z,1.50
2018-09-29T06:51:53.213Z,1.57
2018-09-29T06:54:21.822Z,1.50
2018-09-29T06:56:50.365Z,1.20
2018-09-29T06:59:18.868Z,1.53
2018-09-29T07:01:47.360Z,1.67
2018-09-29T07:04:16.025Z,2.10
2018-09-29T07:06:44.976Z,1.90
2018-09-29T07:09:13.960Z,1.80
2018-09-29T07:11:42.832Z,2.53
2018-09-29T07:14:11.318Z,1.53
2018-09-29T07:16:39.833Z,2.00
2018-09-29T07:19:08.608Z,1.57
2018-09-29T07:21:37.265Z,1.80
2018-09-29T07:24:05.768Z,2.17
2018-09-29T07:26:34.274Z,2.10
2018-09-29T07:29:02.836Z,1.50
2018-09-29T07:31:31.362Z,1.77
2018-09-29T07:33:59.918Z,2.03
2018-09-29T07:36:28.454Z,2.27
2018-09-29T07:38:56.999Z,1.90
2018-09-29T07:41:25.553Z,2.20
2018-09-29T07:43:54.113Z,2.30
2018-09-29T07:46:22.705Z,1.93
2018-09-29T07:48:51.235Z,2.20
2018-09-29T07:51:19.798Z,2.77
2018-09-29T07:53:48.303Z,2.77
2018-09-29T07:56:16.871Z,3.00
2018-09-29T07:58:45.313Z,2.20
2018-09-29T08:01:13.804Z,2.13
2018-09-29T08:03:42.462Z,2.67
2018-09-29T08:06:11.046Z,2.50
2018-09-29T08:08:39.561Z,2.60
2018-09-29T08:11:08.093Z,1.70
2018-09-29T08:13:36.719Z,2.10
2018-09-29T08:16:05.245Z,2.37
2018-09-29T08:18:33.745Z,1.90
2018-09-29T08:21:02.230Z,2.33
2018-09-29T08:23:30.743Z,2.10
2018-09-29T08:25:59.347Z,2.30
2018-09-29T08:28:27.849Z,2.07
2018-09-29T08:30:56.323Z,2.37
2018-09-29T08:33:24.836Z,3.17
2018-09-29T08:35:53.317Z,3.07
2018-09-29T08:38:21.787Z,2.30
2018-09-29T08:40:50.302Z,1.73
2018-09-29T08:43:18.808Z,1.90
2018-09-29T08:45:47.327Z,3.43
2018-09-29T08:48:15.803Z,1.97
2018-09-29T08:50:44.293Z,2.37
2018-09-29T08:53:12.876Z,2.30
2018-09-29T08:55:41.336Z,2.40
2018-09-29T08:58:09.810Z,2.33
2018-09-29T09:00:38.307Z,2.20
2018-09-29T09:03:06.846Z,1.77
2018-09-29T09:05:35.402Z,2.97
2018-09-29T09:08:03.923Z,2.03
2018-09-29T09:10:32.426Z,1.93
2018-09-29T09:13:00.888Z,2.37
2018-09-29T09:15:29.388Z,2.80
2018-09-29T09:17:57.966Z,2.90
2018-09-29T09:20:26.426Z,2.40
2018-09-29T09:22:54.958Z,2.20
2018-09-29T09:25:23.412Z,1.93
2018-09-29T09:27:51.896Z,2.50
2018-09-29T09:30:20.494Z,2.33
2018-09-29T09:32:48.910Z,2.60
2018-09-29T09:35:17.440Z,2.17
2018-09-29T09:37:45.947Z,2.40
2018-09-29T09:40:14.448Z,3.17
2018-09-29T09:42:42.978Z,2.53
2018-09-29T09:45:11.465Z,2.00
2018-09-29T09:47:39.954Z,2.90
2018-09-29T09:50:08.455Z,2.07
2018-09-29T09:52:36.924Z,2.10
2018-09-29T09:55:05.453Z,2.60
2018-09-29T09:57:33.983Z,1.87
2018-09-29T10:00:02.490Z,2.10
2018-09-29T10:02:36.303Z,2.47
2018-09-29T10:05:05.101Z,3.27
2018-09-29T10:07:33.588Z,2.50
2018-09-29T10:10:02.198Z,2.03
2018-09-29T10:12:30.691Z,2.10
2018-09-29T10:14:59.240Z,2.23
2018-09-29T10:17:27.765Z,2.40
2018-09-29T10:19:56.231Z,2.73
2018-09-29T10:22:24.709Z,2.53
2018-09-29T10:24:53.207Z,2.13
2018-09-29T10:27:21.717Z,2.63
2018-09-29T10:29:50.208Z,1.93
2018-09-29T10:32:18.696Z,2.40
2018-09-29T10:34:47.207Z,2.77
2018-09-29T10:37:15.695Z,2.60
2018-09-29T10:39:44.201Z,2.23
2018-09-29T10:42:12.691Z,2.60
2018-09-29T10:44:41.178Z,2.30
2018-09-29T10:47:09.648Z,2.43
2018-09-29T10:49:38.144Z,1.67
2018-09-29T10:52:06.659Z,1.87
2018-09-29T10:54:35.139Z,2.57
2018-09-29T10:57:03.664Z,2.13
2018-09-29T10:59:32.176Z,1.97
2018-09-29T11:02:00.661Z,2.27
2018-09-29T11:04:29.181Z,2.03
2018-09-29T11:06:57.662Z,2.40
2018-09-29T11:09:26.156Z,2.53
2018-09-29T11:11:54.682Z,2.03
2018-09-29T11:14:23.218Z,1.97
2018-09-29T11:16:51.715Z,2.20
2018-09-29T11:19:20.199Z,1.90
2018-09-29T11:21:48.752Z,2.03
2018-09-29T11:24:17.237Z,2.30
2018-09-29T11:26:45.706Z,1.87
2018-09-29T11:29:14.200Z,2.73
2018-09-29T11:31:42.674Z,2.17
2018-09-29T11:34:11.249Z,2.77
2018-09-29T11:36:39.764Z,2.03
2018-09-29T11:39:09.727Z,1.83
2018-09-29T11:41:38.537Z,2.50
2018-09-29T11:44:07.065Z,1.97
2018-09-29T11:46:35.827Z,2.17
2018-09-29T11:49:04.342Z,2.17
2018-09-29T11:51:32.891Z,2.00
2018-09-29T11:54:01.393Z,2.53
2018-09-29T11:56:29.877Z,1.90
2018-09-29T11:58:58.384Z,2.37
2018-09-29T12:01:26.889Z,2.83
2018-09-29T12:03:55.375Z,2.17
2018-09-29T12:06:23.956Z,1.70
2018-09-29T12:08:52.439Z,2.23
2018-09-29T12:11:20.933Z,2.20
2018-09-29T12:13:49.472Z,2.33
2018-09-29T12:16:17.933Z,2.57
2018-09-29T12:18:46.410Z,2.70
2018-09-29T12:21:14.945Z,2.63
2018-09-29T12:23:43.471Z,2.67
2018-09-29T12:26:11.977Z,2.17
2018-09-29T12:28:40.447Z,2.20
2018-09-29T12:31:09.180Z,2.57
2018-09-29T12:33:37.681Z,2.80
2018-09-29T12:36:06.190Z,2.13
2018-09-29T12:38:34.752Z,2.13
2018-09-29T12:41:03.613Z,2.70
2018-09-29T12:43:32.109Z,2.30
2018-09-29T12:46:00.622Z,2.57
2018-09-29T12:48:29.114Z,2.50
2018-09-29T12:50:57.577Z,2.27
2018-09-29T12:53:26.172Z,2.97
2018-09-29T12:55:54.828Z,2.53
2018-09-29T12:58:23.340Z,2.50
2018-09-29T13:00:51.826Z,2.30
2018-09-29T13:03:20.324Z,2.40
2018-09-29T13:05:48.943Z,2.37
2018-09-29T13:08:17.426Z,2.17
2018-09-29T13:10:45.924Z,2.63
2018-09-29T13:13:14.416Z,3.23
2018-09-29T13:15:42.879Z,2.03
2018-09-29T13:18:11.381Z,2.43
2018-09-29T13:20:39.898Z,2.73
2018-09-29T13:23:08.378Z,2.60
2018-09-29T13:25:36.879Z,1.60
2018-09-29T13:28:05.383Z,1.97
2018-09-29T13:30:33.903Z,2.23
2018-09-29T13:33:02.410Z,2.27
2018-09-29T13:35:30.973Z,2.60
2018-09-29T13:37:59.455Z,1.70
2018-09-29T13:40:27.959Z,2.10
2018-09-29T13:42:56.472Z,2.37
2018-09-29T13:45:25.036Z,1.87
2018-09-29T13:47:53.528Z,2.70
2018-09-29T13:50:22.020Z,2.70
2018-09-29T13:52:50.509Z,3.13
2018-09-29T13:55:19.009Z,2.20
2018-09-29T13:57:47.488Z,2.53
2018-09-29T14:00:15.960Z,2.10
2018-09-29T14:02:44.453Z,1.97
2018-09-29T14:05:12.928Z,1.60
2018-09-29T14:07:41.415Z,2.50
2018-09-29T14:10:09.925Z,2.30
2018-09-29T14:12:38.425Z,1.87
2018-09-29T14:15:07.025Z,2.20
2018-09-29T14:17:35.527Z,2.03
2018-09-29T14:20:04.197Z,1.90
2018-09-29T14:22:32.668Z,2.97
2018-09-29T14:25:01.119Z,2.43
2018-09-29T14:27:29.636Z,2.13
2018-09-29T14:29:58.196Z,1.90
2018-09-29T14:32:26.670Z,2.43
2018-09-29T14:34:55.227Z,1.43
2018-09-29T14:37:23.707Z,2.47
2018-09-29T14:39:52.238Z,2.13
2018-09-29T14:42:20.740Z,2.30
2018-09-29T14:44:49.237Z,2.43
2018-09-29T14:47:17.773Z,2.30
2018-09-29T14:49:46.255Z,1.73
2018-09-29T14:52:14.791Z,2.43
2018-09-29T14:54:43.281Z,2.00
2018-09-29T14:57:11.783Z,1.80
2018-09-29T14:59:40.247Z,1.90
2018-09-29T15:02:08.738Z,2.40
2018-09-29T15:04:37.259Z,1.83
2018-09-29T15:07:05.787Z,2.53
2018-09-29T15:09:34.287Z,2.00
2018-09-29T15:12:02.820Z,2.77
2018-09-29T15:14:31.356Z,2.63
2018-09-29T15:16:59.823Z,2.30
2018-09-29T15:19:28.332Z,1.93
2018-09-29T15:21:56.845Z,2.27
2018-09-29T15:24:25.329Z,2.20
2018-09-29T15:26:53.814Z,2.10
2018-09-29T15:29:22.496Z,2.43
2018-09-29T15:31:51.016Z,2.87
2018-09-29T15:34:19.550Z,2.30
2018-09-29T15:36:48.074Z,1.97
2018-09-29T15:39:16.513Z,1.63
2018-09-29T15:41:45.050Z,2.00
2018-09-29T15:44:13.512Z,2.53
2018-09-29T15:46:41.998Z,2.40
2018-09-29T15:49:10.504Z,2.37
2018-09-29T15:51:39.038Z,1.93
2018-09-29T15:54:07.544Z,2.03
2018-09-29T15:56:36.040Z,1.97
2018-09-29T15:59:04.547Z,2.77
2018-09-29T16:01:33.060Z,2.37
2018-09-29T16:04:01.540Z,1.93
2018-09-29T16:06:30.027Z,2.33
2018-09-29T16:08:58.605Z,2.17
2018-09-29T16:11:27.074Z,2.27
2018-09-29T16:13:55.563Z,2.70
2018-09-29T16:16:24.086Z,2.20
2018-09-29T16:18:52.619Z,2.07
2018-09-29T16:21:21.147Z,1.73
2018-09-29T16:23:49.636Z,1.60
2018-09-29T16:26:18.128Z,2.03
2018-09-29T16:28:46.626Z,2.40
2018-09-29T16:31:15.123Z,2.50
2018-09-29T16:36:21.024Z,3.00
2018-09-29T16:38:49.521Z,1.73
2018-09-29T16:41:17.999Z,2.23
2018-09-29T16:43:46.561Z,2.03
2018-09-29T16:46:15.004Z,2.10
2018-09-29T16:48:43.502Z,1.70
2018-09-29T16:51:11.992Z,2.63
2018-09-29T16:53:40.472Z,2.43
2018-09-29T16:56:09.022Z,1.93
2018-09-29T16:58:37.511Z,2.53
2018-09-29T17:01:06.016Z,2.27
2018-09-29T17:03:34.564Z,2.73
2018-09-29T17:06:03.037Z,2.37
2018-09-29T17:08:31.534Z,1.73
2018-09-29T17:11:00.041Z,2.23
2018-09-29T17:13:28.541Z,2.03
2018-09-29T17:15:57.052Z,2.63
2018-09-29T17:18:25.800Z,2.10
2018-09-29T17:20:54.297Z,2.40
2018-09-29T17:23:22.791Z,3.13
2018-09-29T17:25:51.307Z,3.00
2018-09-29T17:28:19.775Z,1.33
2018-09-29T17:30:48.248Z,2.20
2018-09-29T17:33:16.785Z,1.87
2018-09-29T17:35:45.285Z,3.27
2018-09-29T17:38:13.779Z,2.10
2018-09-29T17:40:42.279Z,1.73
2018-09-29T17:43:10.800Z,3.03
2018-09-29T17:45:39.386Z,2.77
2018-09-29T17:48:07.872Z,2.87
2018-09-29T17:50:36.361Z,2.17
2018-09-29T17:53:04.861Z,2.77
2018-09-29T17:55:33.349Z,2.67
2018-09-29T17:58:02.796Z,2.50
2018-09-29T18:00:31.268Z,2.17
2018-09-29T18:02:59.741Z,1.77
2018-09-29T18:05:28.291Z,1.83
2018-09-29T18:07:56.802Z,2.13
2018-09-29T18:10:25.279Z,2.10
2018-09-29T18:12:53.782Z,2.20
2018-09-29T18:15:22.272Z,2.27
2018-09-29T18:17:50.775Z,1.87
2018-09-29T18:20:19.323Z,1.83
2018-09-29T18:22:47.824Z,1.63
2018-09-29T18:25:16.309Z,2.53
2018-09-29T18:27:44.793Z,3.27
2018-09-29T18:30:13.293Z,1.50
2018-09-29T18:32:41.776Z,1.97
2018-09-29T18:35:10.320Z,2.30
2018-09-29T18:37:38.784Z,2.33
2018-09-29T18:40:07.312Z,2.37
2018-09-29T18:42:35.814Z,2.33
2018-09-29T18:45:04.416Z,2.07
2018-09-29T18:47:32.880Z,2.27
2018-09-29T18:50:01.353Z,2.33
2018-09-29T18:52:29.846Z,1.83
2018-09-29T18:54:58.355Z,1.90
2018-09-29T18:57:26.905Z,2.40
2018-09-29T18:59:55.400Z,1.87
2018-09-29T19:02:23.905Z,1.80
2018-09-29T19:04:52.508Z,2.43
2018-09-29T19:07:20.941Z,2.83
2018-09-29T19:09:49.433Z,2.17
2018-09-29T19:12:17.897Z,2.70
2018-09-29T19:14:46.379Z,2.10
2018-09-29T19:17:14.855Z,2.70
2018-09-29T19:19:43.351Z,2.33
2018-09-29T19:22:11.883Z,2.03
2018-09-29T19:24:40.372Z,3.07
2018-09-29T19:27:08.870Z,2.53
2018-09-29T19:29:37.377Z,1.80
2018-09-29T19:32:06.205Z,2.30
2018-09-29T19:34:34.676Z,2.03
2018-09-29T19:37:03.187Z,2.17
2018-09-29T19:39:31.777Z,2.43
2018-09-29T19:42:00.233Z,2.77
2018-09-29T19:44:28.745Z,2.60
2018-09-29T19:46:57.222Z,1.63
2018-09-29T19:49:25.707Z,3.43
2018-09-29T19:51:54.253Z,2.20
2018-09-29T19:54:22.745Z,2.80
2018-09-29T19:56:51.325Z,2.97
2018-09-29T19:59:19.874Z,2.67
2018-09-29T20:01:48.336Z,2.23
2018-09-29T20:04:16.873Z,2.57
2018-09-29T20:06:45.352Z,3.27
2018-09-29T20:09:13.816Z,2.37
2018-09-29T20:11:42.320Z,2.70
2018-09-29T20:14:10.861Z,2.40
2018-09-29T20:16:39.351Z,3.37
2018-09-29T20:19:07.844Z,3.23
2018-09-29T20:21:36.332Z,2.27
2018-09-29T20:24:04.828Z,2.07
2018-09-29T20:26:33.306Z,2.03
2018-09-29T20:29:01.770Z,1.90
2018-09-29T20:31:30.262Z,2.17
2018-09-29T20:33:58.782Z,2.03
2018-09-29T20:36:27.276Z,2.70
2018-09-29T20:38:55.785Z,2.17
2018-09-29T20:41:24.291Z,1.93
2018-09-29T20:43:52.775Z,2.23
2018-09-29T20:46:21.237Z,1.83
2018-09-29T20:48:49.745Z,2.17
2018-09-29T20:51:18.236Z,2.00
2018-09-29T20:53:46.727Z,2.50
2018-09-29T20:56:15.218Z,2.67
2018-09-29T20:58:43.685Z,2.23
2018-09-29T21:01:12.194Z,2.07
2018-09-29T21:03:40.728Z,2.27
2018-09-29T21:06:09.219Z,3.10
2018-09-29T21:08:37.745Z,1.37
2018-09-29T21:11:06.240Z,1.97
2018-09-29T21:13:34.761Z,1.83
2018-09-29T21:16:03.304Z,1.87
2018-09-29T21:18:32.321Z,1.60
2018-09-29T21:21:01.458Z,1.73
2018-09-29T21:23:30.232Z,1.43
2018-09-29T21:25:58.908Z,1.67
2018-09-29T21:28:27.404Z,2.00
2018-09-29T21:30:55.890Z,1.33
2018-09-29T21:33:24.394Z,2.00
2018-09-29T21:35:52.868Z,1.60
2018-09-29T21:38:21.368Z,1.90
2018-09-29T21:40:49.853Z,1.63
2018-09-29T21:43:18.322Z,1.07
2018-09-29T21:45:46.803Z,1.80
2018-09-29T21:48:15.344Z,1.43
2018-09-29T21:50:43.854Z,1.87
2018-09-29T21:53:12.341Z,1.67
2018-09-29T21:55:40.836Z,1.17
2018-09-29T21:58:09.306Z,2.17
2018-09-29T22:00:43.428Z,1.43
2018-09-29T22:03:13.360Z,1.70
2018-09-29T22:05:41.902Z,1.63
2018-09-29T22:08:10.411Z,1.20
2018-09-29T22:10:38.903Z,0.83
2018-09-29T22:13:07.394Z,1.13
2018-09-29T22:15:35.937Z,1.10
2018-09-29T22:18:04.444Z,0.93
2018-09-29T22:20:32.956Z,1.37
2018-09-29T22:23:01.461Z,1.00
2018-09-29T22:25:29.962Z,1.23
2018-09-29T22:27:58.458Z,1.10
2018-09-29T22:30:26.935Z,1.37
2018-09-29T22:32:55.436Z,1.33
2018-09-29T22:35:23.933Z,1.80
2018-09-29T22:37:52.696Z,1.20
2018-09-29T22:40:21.177Z,1.30
2018-09-29T22:42:49.649Z,1.30
2018-09-29T22:45:18.188Z,1.50
2018-09-29T22:47:46.701Z,1.03
2018-09-29T22:50:15.176Z,1.03
2018-09-29T22:52:43.684Z,0.80
2018-09-29T22:55:12.150Z,1.13
2018-09-29T22:57:40.760Z,0.70
2018-09-29T23:00:09.151Z,1.27
2018-09-29T23:02:37.648Z,1.37
2018-09-29T23:05:06.226Z,1.10
2018-09-29T23:07:34.705Z,1.00
2018-09-29T23:10:03.239Z,1.53
2018-09-29T23:12:31.749Z,1.00
2018-09-29T23:15:00.229Z,1.37
2018-09-29T23:17:28.708Z,1.00
2018-09-29T23:19:57.190Z,1.27
2018-09-29T23:22:25.697Z,1.90
2018-09-29T23:24:54.167Z,0.93
2018-09-29T23:27:22.713Z,1.17
2018-09-29T23:29:51.201Z,1.33
2018-09-29T23:32:19.724Z,1.27
2018-09-29T23:34:48.301Z,0.80
2018-09-29T23:37:16.830Z,0.40
2018-09-29T23:39:45.301Z,1.23
2018-09-29T23:42:13.816Z,1.43
2018-09-29T23:44:42.274Z,0.93
2018-09-29T23:47:10.760Z,0.70
2018-09-29T23:49:39.356Z,1.10
2018-09-29T23:52:07.857Z,0.67
2018-09-29T23:54:36.441Z,0.63
2018-09-29T23:57:04.880Z,1.00
2018-09-29T23:59:33.363Z,0.37
